Time;durP1;ratioP1;P1;durP2;ratioP2;P2;SDS_P1;SDS_P2;PMS_P1;PMS_P2;Temp;Humidity;BMP_temperature;BMP_pressure;BME280_temperature;BME280_humidity;BME280_pressure;Samples;Min_cycle;Max_cycle;Signal;HPM_P1;HPM_P2
2022/08/04 00:00:54;;;;;;;;;;;;;;;19.56;63.46;99734.38;4989678;28;19960;-73
2022/08/04 00:03:27;;;;;;;;;;;;;;;19.57;63.55;99736.09;4992346;28;20359;-73
2022/08/04 00:06:00;;;;;;;;;;;;;;;19.49;63.77;99735.50;4982526;28;20009;-73
2022/08/04 00:08:34;;;;;;;;;;;;;;;19.45;63.92;99731.34;4990656;28;20008;-73
2022/08/04 00:11:03;;;;;;;;;;;;;;;19.44;64.00;99729.66;4993339;28;20269;-71
2022/08/04 00:13:38;;;;;;;;;;;;;;;19.44;63.86;99724.47;4985841;28;19980;-73
2022/08/04 00:16:29;;;;;;;;;;;;;;;19.46;63.73;99727.84;4985007;28;19926;-73
2022/08/04 00:19:02;;;;;;;;;;;;;;;19.53;63.54;99723.31;4989180;28;19933;-73
2022/08/04 00:21:36;;;;;;;;;;;;;;;19.54;63.38;99725.84;4990181;28;19932;-71
2022/08/04 00:24:05;;;;;;;;;;;;;;;19.55;63.09;99727.53;4987784;28;19953;-73
2022/08/04 00:26:40;;;;;;;;;;;;;;;19.55;62.86;99732.72;4987098;28;19934;-73
2022/08/04 00:29:10;;;;;;;;;;;;;;;19.49;63.26;99725.16;4973459;28;19929;-73
2022/08/04 00:31:41;;;;;;;;;;;;;;;19.46;63.32;99727.84;4992032;28;20012;-72
2022/08/04 00:34:26;;;;;;;;;;;;;;;19.43;63.38;99735.75;4995090;28;20072;-73
2022/08/04 00:36:55;;;;;;;;;;;;;;;19.42;63.50;99725.44;4995125;28;20434;-73
2022/08/04 00:39:24;;;;;;;;;;;;;;;19.41;63.63;99727.19;4977678;28;19993;-73
2022/08/04 00:42:04;;;;;;;;;;;;;;;19.44;63.45;99734.81;4971281;28;19930;-74
2022/08/04 00:44:39;;;;;;;;;;;;;;;19.41;63.89;99737.56;4970546;28;19948;-73
2022/08/04 00:47:19;;;;;;;;;;;;;;;19.38;64.09;99746.28;4970597;28;20341;-73
2022/08/04 00:49:58;;;;;;;;;;;;;;;19.32;64.01;99735.22;4975143;28;19926;-73
2022/08/04 00:52:33;;;;;;;;;;;;;;;19.32;64.12;99740.41;4971842;28;19973;-73
2022/08/04 00:55:11;;;;;;;;;;;;;;;19.29;64.07;99740.53;4977155;28;19972;-73
2022/08/04 00:57:51;;;;;;;;;;;;;;;19.22;64.00;99737.28;4976715;28;20439;-73
2022/08/04 01:00:22;;;;;;;;;;;;;;;19.25;64.08;99738.94;4973128;28;20337;-73
2022/08/04 01:03:00;;;;;;;;;;;;;;;19.26;64.18;99740.63;4977297;28;20419;-73
2022/08/04 01:05:35;;;;;;;;;;;;;;;19.21;64.18;99738.22;4975161;28;19938;-73
2022/08/04 01:08:15;;;;;;;;;;;;;;;19.17;64.50;99740.97;4958300;29;20017;-73
2022/08/04 01:10:54;;;;;;;;;;;;;;;19.12;64.69;99735.09;4973101;28;20024;-73
2022/08/04 01:13:29;;;;;;;;;;;;;;;19.14;64.84;99733.31;4975140;28;19965;-73
2022/08/04 01:16:04;;;;;;;;;;;;;;;19.16;64.65;99734.09;4975888;28;19926;-73
2022/08/04 01:18:36;;;;;;;;;;;;;;;19.14;64.74;99735.88;4973061;28;19927;-73
2022/08/04 01:21:17;;;;;;;;;;;;;;;19.15;64.98;99732.38;4973484;28;20384;-74
2022/08/04 01:23:57;;;;;;;;;;;;;;;19.12;65.01;99737.69;4969174;28;20406;-73
2022/08/04 01:26:37;;;;;;;;;;;;;;;19.09;65.05;99733.47;4972892;28;19965;-71
2022/08/04 01:29:22;;;;;;;;;;;;;;;19.06;65.33;99728.38;4971149;28;20017;-71
2022/08/04 01:32:02;;;;;;;;;;;;;;;18.89;65.96;99728.09;4974601;28;20395;-73
2022/08/04 01:34:34;;;;;;;;;;;;;;;18.69;66.93;99726.19;4974795;28;19926;-74
2022/08/04 01:37:12;;;;;;;;;;;;;;;18.65;67.22;99727.19;4974193;28;19933;-73
2022/08/04 01:39:44;;;;;;;;;;;;;;;18.69;67.11;99728.75;4994912;28;20260;-73
2022/08/04 01:42:13;;;;;;;;;;;;;;;18.70;67.13;99725.28;4994914;28;20043;-73
2022/08/04 01:45:03;;;;;;;;;;;;;;;18.70;66.98;99725.28;4994495;28;19926;-73
2022/08/04 01:47:34;;;;;;;;;;;;;;;18.69;67.02;99726.19;4994552;28;19930;-73
2022/08/04 01:50:07;;;;;;;;;;;;;;;18.68;66.87;99726.25;4993292;28;19925;-73
2022/08/04 01:52:37;;;;;;;;;;;;;;;18.68;66.81;99727.09;4994700;28;19988;-73
2022/08/04 01:55:08;;;;;;;;;;;;;;;18.68;66.90;99727.09;4993628;28;20375;-73
2022/08/04 01:57:38;;;;;;;;;;;;;;;18.70;66.83;99730.47;4995327;28;20269;-73
2022/08/04 02:00:09;;;;;;;;;;;;;;;18.70;66.81;99733.06;4994597;28;20414;-73
2022/08/04 02:02:38;;;;;;;;;;;;;;;18.71;66.61;99726.16;4976641;28;19926;-71
2022/08/04 02:05:09;;;;;;;;;;;;;;;18.73;66.59;99730.38;4982564;28;19926;-73
2022/08/04 02:07:47;;;;;;;;;;;;;;;18.72;66.56;99733.84;4993446;28;19925;-71
2022/08/04 02:10:21;;;;;;;;;;;;;;;18.70;66.54;99725.28;4993152;28;20443;-73
2022/08/04 02:12:56;;;;;;;;;;;;;;;18.72;66.41;99723.50;4993304;28;19930;-73
2022/08/04 02:15:30;;;;;;;;;;;;;;;18.68;66.41;99724.50;4992004;28;20043;-73
2022/08/04 02:18:03;;;;;;;;;;;;;;;18.69;66.67;99717.59;4994697;28;19926;-73
2022/08/04 02:20:36;;;;;;;;;;;;;;;18.69;66.69;99717.59;4993274;28;20394;-73
2022/08/04 02:23:09;;;;;;;;;;;;;;;18.68;66.75;99721.91;4976260;28;19978;-73
2022/08/04 02:25:40;;;;;;;;;;;;;;;18.64;67.06;99720.31;4985375;28;19932;-73
2022/08/04 02:28:12;;;;;;;;;;;;;;;18.60;67.00;99723.03;4976166;28;19926;-73
2022/08/04 02:30:47;;;;;;;;;;;;;;;18.58;67.29;99720.53;4978194;28;20499;-73
2022/08/04 02:33:19;;;;;;;;;;;;;;;18.58;66.95;99715.34;4975448;28;19929;-73
2022/08/04 02:35:51;;;;;;;;;;;;;;;18.61;66.74;99719.59;4992808;28;19969;-73
2022/08/04 02:38:24;;;;;;;;;;;;;;;18.59;66.83;99726.53;4992481;28;19925;-74
2022/08/04 02:40:55;;;;;;;;;;;;;;;18.60;66.81;99723.03;4994463;28;20009;-74
2022/08/04 02:43:28;;;;;;;;;;;;;;;18.53;66.99;99727.56;4994706;28;19953;-73
2022/08/04 02:46:19;;;;;;;;;;;;;;;18.49;67.03;99726.00;4994149;28;20012;-73
2022/08/04 02:48:50;;;;;;;;;;;;;;;18.37;67.52;99726.34;4992827;28;19932;-73
2022/08/04 02:51:22;;;;;;;;;;;;;;;18.20;67.94;99723.44;4993426;28;19933;-73
2022/08/04 02:53:53;;;;;;;;;;;;;;;18.12;68.44;99724.56;4992884;28;20380;-73
2022/08/04 02:56:22;;;;;;;;;;;;;;;18.16;68.54;99719.28;4990438;28;19954;-73
2022/08/04 02:58:53;;;;;;;;;;;;;;;18.22;68.45;99716.50;4994724;28;19977;-73
2022/08/04 03:01:23;;;;;;;;;;;;;;;18.22;68.06;99713.91;4993417;28;19930;-73
2022/08/04 03:04:02;;;;;;;;;;;;;;;18.25;67.99;99728.47;4993523;28;19926;-73
2022/08/04 03:06:46;;;;;;;;;;;;;;;18.30;67.87;99719.69;4993933;28;19926;-73
2022/08/04 03:09:26;;;;;;;;;;;;;;;18.26;68.02;99728.41;4994927;28;19934;-73
2022/08/04 03:12:16;;;;;;;;;;;;;;;18.23;67.99;99725.94;4993464;28;19926;-71
2022/08/04 03:14:59;;;;;;;;;;;;;;;18.21;68.01;99719.13;4993608;28;19957;-71
2022/08/04 03:17:43;;;;;;;;;;;;;;;18.15;68.30;99725.31;4993282;28;19933;-72
2022/08/04 03:20:29;;;;;;;;;;;;;;;18.13;68.29;99724.53;4994475;28;19976;-73
2022/08/04 03:23:09;;;;;;;;;;;;;;;18.06;68.57;99730.78;4993192;28;19984;-73
2022/08/04 03:25:51;;;;;;;;;;;;;;;17.96;68.77;99729.34;4983678;28;19968;-74
2022/08/04 03:28:35;;;;;;;;;;;;;;;17.74;69.28;99733.44;4993131;28;20016;-71
2022/08/04 03:31:11;;;;;;;;;;;;;;;17.57;69.55;99738.25;4991149;28;19925;-71
2022/08/04 03:33:54;;;;;;;;;;;;;;;17.52;69.95;99732.38;4984728;28;19926;-71
2022/08/04 03:36:34;;;;;;;;;;;;;;;17.36;70.22;99737.09;4993681;28;19932;-72
2022/08/04 03:39:26;;;;;;;;;;;;;;;17.20;70.78;99741.78;4992020;28;19929;-71
2022/08/04 03:42:07;;;;;;;;;;;;;;;17.15;71.28;99737.66;4992344;28;19925;-71
2022/08/04 03:44:52;;;;;;;;;;;;;;;17.19;71.74;99739.25;4991343;28;19925;-71
2022/08/04 03:47:28;;;;;;;;;;;;;;;17.28;71.58;99744.16;4994450;28;19932;-71
2022/08/04 03:50:13;;;;;;;;;;;;;;;17.42;71.73;99745.50;4994386;28;19933;-71
2022/08/04 03:55:55;;;;;;;;;;;;;;;17.65;71.16;99739.75;4990059;28;20866;-71
2022/08/04 03:58:34;;;;;;;;;;;;;;;17.68;70.96;99733.66;4959860;28;19926;-71
2022/08/04 04:01:08;;;;;;;;;;;;;;;17.77;70.62;99743.69;4983094;28;19926;-71
2022/08/04 04:03:51;;;;;;;;;;;;;;;17.87;70.19;99745.13;4992947;28;19972;-74
2022/08/04 04:06:30;;;;;;;;;;;;;;;17.82;70.28;99737.53;4994227;28;19980;-73
2022/08/04 04:09:13;;;;;;;;;;;;;;;17.83;70.81;99740.94;4996427;28;19930;-73
2022/08/04 04:12:06;;;;;;;;;;;;;;;18.00;70.35;99730.94;4996563;28;20016;-73
2022/08/04 04:14:44;;;;;;;;;;;;;;;18.09;70.17;99735.84;4997112;28;19926;-73
2022/08/04 04:17:23;;;;;;;;;;;;;;;18.16;69.69;99739.09;4996248;28;19925;-73
2022/08/04 04:20:08;;;;;;;;;;;;;;;18.28;69.33;99739.56;4998094;28;19929;-73
2022/08/04 04:22:47;;;;;;;;;;;;;;;18.32;69.22;99742.88;4996615;28;19996;-73
2022/08/04 04:25:24;;;;;;;;;;;;;;;18.45;68.84;99750.19;4996340;28;20337;-73
2022/08/04 04:28:06;;;;;;;;;;;;;;;18.55;68.41;99740.44;4996296;28;19964;-73
2022/08/04 04:31:02;;;;;;;;;;;;;;;18.64;67.97;99746.16;4994505;28;19973;-73
2022/08/04 04:33:36;;;;;;;;;;;;;;;18.74;68.05;99747.56;4995172;28;19941;-74
2022/08/04 04:36:11;;;;;;;;;;;;;;;18.74;68.27;99750.16;4993867;28;20375;-73
2022/08/04 04:38:58;;;;;;;;;;;;;;;18.74;68.65;99755.31;4996098;28;20021;-73
2022/08/04 04:41:37;;;;;;;;;;;;;;;18.87;68.51;99749.75;4993889;28;19933;-73
2022/08/04 04:44:22;;;;;;;;;;;;;;;19.05;67.95;99754.31;4994045;28;20020;-73
2022/08/04 04:47:03;;;;;;;;;;;;;;;19.17;67.32;99746.13;4992384;28;19968;-73
2022/08/04 04:49:37;;;;;;;;;;;;;;;19.26;66.84;99751.00;4988110;28;21987;-73
2022/08/04 04:52:09;;;;;;;;;;;;;;;19.33;66.73;99761.09;4990929;28;19926;-73
2022/08/04 04:54:39;;;;;;;;;;;;;;;19.45;66.16;99764.16;4997162;28;19941;-73
2022/08/04 04:57:11;;;;;;;;;;;;;;;19.53;65.75;99765.56;4994850;28;19926;-73
2022/08/04 04:59:47;;;;;;;;;;;;;;;19.64;65.60;99765.19;4993582;28;19934;-73
2022/08/04 05:02:33;;;;;;;;;;;;;;;19.75;65.31;99756.13;4975329;28;20308;-75
2022/08/04 05:05:12;;;;;;;;;;;;;;;19.88;65.28;99756.53;4995797;28;19926;-73
2022/08/04 05:07:52;;;;;;;;;;;;;;;20.03;65.23;99755.94;4996893;28;19929;-73
2022/08/04 05:10:31;;;;;;;;;;;;;;;20.19;65.21;99758.78;4996713;28;19933;-72
2022/08/04 05:13:09;;;;;;;;;;;;;;;20.29;65.12;99754.97;4996743;28;20387;-73
2022/08/04 05:16:00;;;;;;;;;;;;;;;20.41;64.87;99759.69;4996627;28;19949;-73
2022/08/04 05:18:31;;;;;;;;;;;;;;;20.52;64.84;99749.72;4996915;28;20380;-73
2022/08/04 05:21:08;;;;;;;;;;;;;;;20.65;64.69;99756.13;4994133;28;19925;-73
2022/08/04 05:23:41;;;;;;;;;;;;;;;20.79;64.34;99758.97;4986807;28;20383;-73
2022/08/04 05:26:12;;;;;;;;;;;;;;;20.95;63.79;99754.84;4974612;28;19965;-73
2022/08/04 05:28:43;;;;;;;;;;;;;;;21.08;63.66;99756.06;4995497;28;20260;-73
2022/08/04 05:31:12;;;;;;;;;;;;;;;21.22;63.22;99758.91;4994630;28;19926;-74
2022/08/04 05:33:43;;;;;;;;;;;;;;;21.35;62.86;99760.06;4995237;28;19926;-74
2022/08/04 05:36:15;;;;;;;;;;;;;;;21.49;62.49;99758.63;4992629;28;19926;-73
2022/08/04 05:39:02;;;;;;;;;;;;;;;21.61;62.04;99758.94;4991008;28;19926;-73
2022/08/04 05:41:33;;;;;;;;;;;;;;;21.68;61.79;99762.09;4988376;28;19926;-72
2022/08/04 05:44:15;;;;;;;;;;;;;;;21.79;61.86;99754.66;4976687;28;19930;-72
2022/08/04 05:46:45;;;;;;;;;;;;;;;21.92;61.74;99758.44;4977001;28;20024;-72
2022/08/04 05:49:23;;;;;;;;;;;;;;;22.04;61.50;99760.47;4976870;28;20044;-72
2022/08/04 05:51:52;;;;;;;;;;;;;;;22.13;61.42;99756.59;4959867;28;20084;-73
2022/08/04 05:54:21;;;;;;;;;;;;;;;22.24;61.34;99755.19;4976388;28;20423;-73
2022/08/04 05:56:51;;;;;;;;;;;;;;;22.34;61.36;99758.19;4976437;28;20019;-73
2022/08/04 05:59:22;;;;;;;;;;;;;;;22.48;60.99;99760.97;4976649;28;20332;-73
2022/08/04 06:01:51;;;;;;;;;;;;;;;22.58;60.51;99768.25;4958929;28;20375;-73
2022/08/04 06:04:27;;;;;;;;;;;;;;;22.68;60.11;99766.94;4976506;28;20300;-72
2022/08/04 06:06:55;;;;;;;;;;;;;;;22.79;59.77;99770.78;4976528;28;20459;-73
2022/08/04 06:09:24;;;;;;;;;;;;;;;22.90;59.52;99773.69;4976974;28;20364;-73
2022/08/04 06:11:56;;;;;;;;;;;;;;;23.05;59.47;99775.53;4959098;28;20029;-72
2022/08/04 06:14:35;;;;;;;;;;;;;;;23.14;59.08;99772.47;4976139;28;19926;-72
2022/08/04 06:17:05;;;;;;;;;;;;;;;23.23;58.99;99771.97;4959116;28;19930;-72
2022/08/04 06:19:55;;;;;;;;;;;;;;;23.36;58.70;99777.44;4976586;28;19955;-73
2022/08/04 06:22:45;;;;;;;;;;;;;;;23.48;58.75;99776.81;4976076;28;20037;-72
2022/08/04 06:25:17;;;;;;;;;;;;;;;23.60;58.51;99778.78;4976119;28;20364;-72
2022/08/04 06:27:48;;;;;;;;;;;;;;;23.77;58.32;99783.97;4975464;28;19933;-73
2022/08/04 06:30:18;;;;;;;;;;;;;;;23.89;58.06;99778.94;4975839;28;19930;-73
2022/08/04 06:32:54;;;;;;;;;;;;;;;24.02;57.79;99778.28;4975793;28;19926;-72
2022/08/04 06:35:32;;;;;;;;;;;;;;;24.19;57.50;99775.59;4975794;28;19926;-72
2022/08/04 06:38:01;;;;;;;;;;;;;;;24.28;57.09;99775.94;4975391;28;19934;-72
2022/08/04 06:40:31;;;;;;;;;;;;;;;24.32;56.70;99776.63;4975676;28;19953;-73
2022/08/04 06:43:04;;;;;;;;;;;;;;;24.41;56.65;99768.28;4975575;28;20380;-72
2022/08/04 06:45:34;;;;;;;;;;;;;;;24.55;56.98;99770.97;4975944;28;19926;-72
2022/08/04 06:48:03;;;;;;;;;;;;;;;24.73;56.50;99772.53;4975522;28;19926;-72
2022/08/04 06:50:32;;;;;;;;;;;;;;;24.83;56.21;99762.44;4975426;28;19930;-72
2022/08/04 06:53:21;;;;;;;;;;;;;;;24.92;55.66;99762.75;4975768;28;20017;-71
2022/08/04 06:55:50;;;;;;;;;;;;;;;24.94;55.40;99760.88;4975256;28;19926;-73
2022/08/04 06:58:21;;;;;;;;;;;;;;;25.03;55.75;99760.34;4975728;28;19926;-72
2022/08/04 07:00:51;;;;;;;;;;;;;;;25.14;55.32;99763.19;4975380;28;19926;-73
2022/08/04 07:03:20;;;;;;;;;;;;;;;25.30;54.66;99763.94;4975217;28;19930;-73
2022/08/04 07:05:49;;;;;;;;;;;;;;;25.47;54.34;99764.72;4975280;28;19926;-72
2022/08/04 07:08:18;;;;;;;;;;;;;;;25.54;54.13;99756.44;4975207;28;19957;-72
2022/08/04 07:10:48;;;;;;;;;;;;;;;25.72;54.05;99757.09;4975265;28;19977;-73
2022/08/04 07:13:18;;;;;;;;;;;;;;;25.82;53.57;99750.34;4975435;28;20371;-72
2022/08/04 07:15:49;;;;;;;;;;;;;;;25.88;52.77;99761.28;4975499;28;19927;-73
2022/08/04 07:18:17;;;;;;;;;;;;;;;25.96;53.09;99759.00;4975445;28;19930;-73
2022/08/04 07:20:46;;;;;;;;;;;;;;;26.10;52.41;99763.41;4975061;28;19930;-72
2022/08/04 07:23:20;;;;;;;;;;;;;;;26.20;52.69;99754.03;4957804;28;19930;-72
2022/08/04 07:25:52;;;;;;;;;;;;;;;26.35;51.85;99755.69;4975109;28;19926;-73
2022/08/04 07:28:32;;;;;;;;;;;;;;;26.42;51.51;99753.50;4975422;28;20390;-72
2022/08/04 07:31:02;;;;;;;;;;;;;;;26.50;50.40;99759.94;4974975;28;19933;-73
2022/08/04 07:33:31;;;;;;;;;;;;;;;26.68;50.36;99757.91;4975560;28;20360;-73
2022/08/04 07:35:59;;;;;;;;;;;;;;;26.79;50.04;99759.84;4974987;28;19973;-73
2022/08/04 07:38:40;;;;;;;;;;;;;;;26.88;49.09;99760.06;4976094;28;20017;-73
2022/08/04 07:41:21;;;;;;;;;;;;;;;26.93;48.18;99755.38;4979036;28;19926;-73
2022/08/04 07:44:07;;;;;;;;;;;;;;;26.98;48.43;99753.28;4979152;28;19965;-73
2022/08/04 07:46:37;;;;;;;;;;;;;;;27.18;48.23;99752.81;4978783;28;19938;-73
2022/08/04 07:49:07;;;;;;;;;;;;;;;27.17;47.79;99745.03;4978799;28;20012;-73
2022/08/04 07:51:36;;;;;;;;;;;;;;;27.25;47.58;99742.72;4979027;28;19933;-73
2022/08/04 07:54:04;;;;;;;;;;;;;;;27.53;47.63;99742.53;4978671;28;19933;-73
2022/08/04 07:56:33;;;;;;;;;;;;;;;27.73;47.39;99744.63;4979098;28;19930;-73
2022/08/04 07:59:02;;;;;;;;;;;;;;;27.79;45.83;99730.22;4978578;28;19930;-73
2022/08/04 08:01:31;;;;;;;;;;;;;;;27.88;45.05;99732.22;4978506;28;19926;-73
2022/08/04 08:04:01;;;;;;;;;;;;;;;28.03;45.21;99746.03;4978387;28;19926;-73
2022/08/04 08:06:30;;;;;;;;;;;;;;;28.00;44.73;99738.41;4978491;28;20385;-73
2022/08/04 08:09:09;;;;;;;;;;;;;;;28.22;44.93;99741.16;4978819;28;20391;-73
2022/08/04 08:11:41;;;;;;;;;;;;;;;28.46;44.28;99734.09;4978680;28;19997;-73
2022/08/04 08:14:30;;;;;;;;;;;;;;;28.65;44.24;99739.72;4978367;28;19932;-73
2022/08/04 08:17:00;;;;;;;;;;;;;;;28.81;43.81;99742.88;4978564;28;19930;-73
2022/08/04 08:19:30;;;;;;;;;;;;;;;28.88;43.06;99741.47;4978433;28;19973;-73
2022/08/04 08:21:58;;;;;;;;;;;;;;;28.80;42.76;99743.00;4978047;28;19926;-73
2022/08/04 08:24:29;;;;;;;;;;;;;;;28.73;42.66;99736.50;4978360;28;20016;-72
2022/08/04 08:26:57;;;;;;;;;;;;;;;28.56;42.74;99743.00;4978331;28;19930;-72
2022/08/04 08:29:26;;;;;;;;;;;;;;;28.49;43.09;99739.13;4977978;28;19933;-73
2022/08/04 08:31:55;;;;;;;;;;;;;;;28.52;43.02;99738.91;4978516;28;20025;-73
2022/08/04 08:34:34;;;;;;;;;;;;;;;28.65;42.61;99734.44;4977958;28;19926;-73
2022/08/04 08:37:05;;;;;;;;;;;;;;;28.70;42.73;99736.78;4977911;28;19980;-73
2022/08/04 08:39:36;;;;;;;;;;;;;;;28.84;43.22;99734.75;4960555;28;20353;-73
2022/08/04 08:42:19;;;;;;;;;;;;;;;28.88;42.42;99736.22;4977862;28;19932;-72
2022/08/04 08:45:09;;;;;;;;;;;;;;;28.94;42.12;99730.50;4969733;28;19956;-72
2022/08/04 08:47:50;;;;;;;;;;;;;;;29.08;41.83;99740.78;4977694;28;19927;-73
2022/08/04 08:50:55;;;;;;;;;;;;;;;29.15;41.04;99742.00;4977255;28;19930;-73
2022/08/04 08:53:31;;;;;;;;;;;;;;;29.26;40.65;99735.97;4961096;28;20024;-73
2022/08/04 08:56:11;;;;;;;;;;;;;;;29.26;40.25;99741.22;4977502;28;19981;-73
2022/08/04 08:58:47;;;;;;;;;;;;;;;29.29;40.54;99737.53;4977539;28;20385;-73
2022/08/04 09:01:26;;;;;;;;;;;;;;;29.55;40.78;99736.34;4977994;28;20295;-73
2022/08/04 09:04:13;;;;;;;;;;;;;;;29.54;40.07;99740.75;4977579;28;20323;-72
2022/08/04 09:07:02;;;;;;;;;;;;;;;29.60;40.72;99744.72;4977435;28;19934;-73
2022/08/04 09:09:41;;;;;;;;;;;;;;;29.70;40.38;99743.06;4977306;28;20291;-73
2022/08/04 09:12:14;;;;;;;;;;;;;;;29.67;39.68;99738.03;4977355;28;19926;-73
2022/08/04 09:14:53;;;;;;;;;;;;;;;29.59;38.62;99727.25;4976637;28;20214;-73
2022/08/04 09:17:27;;;;;;;;;;;;;;;29.52;37.99;99732.16;4959984;28;20402;-73
2022/08/04 09:19:59;;;;;;;;;;;;;;;29.63;38.59;99729.53;4977202;28;20455;-73
2022/08/04 09:22:35;;;;;;;;;;;;;;;29.64;37.45;99730.34;4977019;28;19961;-73
2022/08/04 09:25:08;;;;;;;;;;;;;;;29.81;38.23;99728.13;4977709;28;19969;-73
2022/08/04 09:27:40;;;;;;;;;;;;;;;29.95;38.50;99734.91;4976954;28;20386;-73
2022/08/04 09:30:10;;;;;;;;;;;;;;;29.97;38.14;99726.91;4991983;28;19976;-73
2022/08/04 09:32:44;;;;;;;;;;;;;;;29.96;38.92;99723.44;4976940;28;19926;-73
2022/08/04 09:35:17;;;;;;;;;;;;;;;30.08;38.41;99719.81;4976850;28;19926;-73
2022/08/04 09:37:54;;;;;;;;;;;;;;;30.22;36.97;99716.06;4976655;28;19926;-73
2022/08/04 09:40:28;;;;;;;;;;;;;;;30.27;35.87;99714.72;4976733;28;19926;-73
2022/08/04 09:43:29;;;;;;;;;;;;;;;30.23;36.00;99713.31;4976660;28;20404;-72
2022/08/04 09:46:21;;;;;;;;;;;;;;;30.40;37.19;99709.34;4976931;28;19933;-72
2022/08/04 09:48:53;;;;;;;;;;;;;;;30.55;37.44;99701.97;4976827;28;19926;-73
2022/08/04 09:51:25;;;;;;;;;;;;;;;30.72;37.06;99696.94;4976629;28;19949;-73
2022/08/04 09:54:16;;;;;;;;;;;;;;;30.91;36.46;99699.75;4976610;28;20380;-73
2022/08/04 09:57:07;;;;;;;;;;;;;;;30.92;35.77;99696.16;4976433;28;19930;-73
2022/08/04 09:59:41;;;;;;;;;;;;;;;30.96;35.30;99700.19;4976424;28;19930;-73
2022/08/04 10:02:11;;;;;;;;;;;;;;;30.99;34.33;99696.47;4958500;28;19933;-73
2022/08/04 10:04:42;;;;;;;;;;;;;;;30.92;34.03;99697.97;4976159;28;19933;-73
2022/08/04 10:07:30;;;;;;;;;;;;;;;30.96;33.91;99694.09;4976336;28;19926;-73
2022/08/04 10:10:10;;;;;;;;;;;;;;;31.15;33.82;99694.19;4976793;28;19932;-73
2022/08/04 10:12:48;;;;;;;;;;;;;;;31.14;33.20;99705.72;4976215;28;19926;-73
2022/08/04 10:15:19;;;;;;;;;;;;;;;31.12;32.05;99691.84;4976130;28;19926;-73
2022/08/04 10:18:00;;;;;;;;;;;;;;;31.22;31.77;99703.25;4976076;28;19952;-73
2022/08/04 10:20:42;;;;;;;;;;;;;;;31.20;31.15;99705.19;4976787;28;19933;-73
2022/08/04 10:23:23;;;;;;;;;;;;;;;31.21;31.08;99703.41;4975923;28;19950;-73
2022/08/04 10:26:02;;;;;;;;;;;;;;;31.25;30.71;99696.88;4976539;28;19972;-73
2022/08/04 10:28:41;;;;;;;;;;;;;;;31.37;30.71;99696.66;4976599;28;20399;-72
2022/08/04 10:31:13;;;;;;;;;;;;;;;31.42;31.72;99689.19;4975794;28;19930;-72
2022/08/04 10:33:44;;;;;;;;;;;;;;;31.41;31.48;99681.41;4976113;28;20293;-72
2022/08/04 10:36:17;;;;;;;;;;;;;;;31.70;31.78;99688.47;4976161;28;20270;-72
2022/08/04 10:38:50;;;;;;;;;;;;;;;31.77;30.78;99684.31;4975591;28;19930;-72
2022/08/04 10:41:24;;;;;;;;;;;;;;;31.72;30.88;99678.63;4976239;28;19930;-72
2022/08/04 10:44:01;;;;;;;;;;;;;;;31.87;31.60;99675.59;4975523;28;19926;-72
2022/08/04 10:46:32;;;;;;;;;;;;;;;31.91;31.53;99669.94;4975607;28;19964;-73
2022/08/04 10:49:04;;;;;;;;;;;;;;;31.80;31.84;99678.78;4975531;28;20008;-73
2022/08/04 10:51:36;;;;;;;;;;;;;;;31.92;32.06;99660.16;4958668;28;20021;-73
2022/08/04 10:54:27;;;;;;;;;;;;;;;32.22;32.77;99668.03;4975508;28;19932;-73
2022/08/04 10:56:59;;;;;;;;;;;;;;;32.28;31.92;99667.47;4975684;28;19930;-73
2022/08/04 10:59:33;;;;;;;;;;;;;;;32.18;31.56;99671.91;4975410;28;19957;-73
2022/08/04 11:02:12;;;;;;;;;;;;;;;32.07;31.64;99669.41;4975665;28;19948;-73
2022/08/04 11:04:46;;;;;;;;;;;;;;;32.09;30.88;99662.16;4990277;28;19969;-72
2022/08/04 11:07:17;;;;;;;;;;;;;;;32.09;30.73;99662.16;4975210;28;20025;-73
2022/08/04 11:09:45;;;;;;;;;;;;;;;32.11;30.06;99670.78;4975586;28;19977;-73
2022/08/04 11:12:16;;;;;;;;;;;;;;;32.15;30.35;99666.91;4975146;28;19926;-73
2022/08/04 11:14:50;;;;;;;;;;;;;;;32.20;30.98;99664.69;4975476;28;19926;-73
2022/08/04 11:17:21;;;;;;;;;;;;;;;32.24;29.92;99666.09;4975621;28;20376;-71
2022/08/04 11:19:56;;;;;;;;;;;;;;;32.16;30.09;99663.28;4975725;28;20272;-72
2022/08/04 11:22:50;;;;;;;;;;;;;;;32.28;30.19;99656.91;4975319;28;19926;-72
2022/08/04 11:25:20;;;;;;;;;;;;;;;32.37;30.17;99654.25;4975102;28;19926;-72
2022/08/04 11:27:55;;;;;;;;;;;;;;;32.47;30.69;99654.25;4975072;28;20391;-72
2022/08/04 11:30:29;;;;;;;;;;;;;;;32.69;30.86;99656.63;4975042;28;19933;-72
2022/08/04 11:33:02;;;;;;;;;;;;;;;32.83;31.32;99647.41;4975012;28;19926;-73
2022/08/04 11:35:34;;;;;;;;;;;;;;;33.09;30.40;99653.75;4974885;28;20340;-73
2022/08/04 11:38:08;;;;;;;;;;;;;;;33.07;29.68;99650.41;4974888;28;20336;-74
2022/08/04 11:40:40;;;;;;;;;;;;;;;33.04;29.41;99653.38;4975114;28;19981;-74
2022/08/04 11:43:26;;;;;;;;;;;;;;;32.85;29.09;99651.56;4974797;28;20324;-73
2022/08/04 11:46:21;;;;;;;;;;;;;;;32.80;30.54;99650.34;4975165;28;19934;-73
2022/08/04 11:48:53;;;;;;;;;;;;;;;32.94;31.41;99645.44;4975180;28;19988;-73
2022/08/04 11:51:23;;;;;;;;;;;;;;;33.09;30.20;99644.00;4974907;28;20424;-73
2022/08/04 11:53:51;;;;;;;;;;;;;;;33.17;29.24;99634.50;4975058;28;20324;-73
2022/08/04 11:56:20;;;;;;;;;;;;;;;33.16;28.91;99640.78;4957525;28;19930;-74
2022/08/04 11:59:07;;;;;;;;;;;;;;;33.09;27.70;99630.78;4974791;28;19927;-73
2022/08/04 12:02:00;;;;;;;;;;;;;;;33.08;28.52;99631.78;4975060;28;19926;-73
2022/08/04 12:04:35;;;;;;;;;;;;;;;33.13;28.13;99635.78;4974992;28;19926;-73
2022/08/04 12:07:06;;;;;;;;;;;;;;;33.24;28.29;99625.00;4974719;28;20300;-74
2022/08/04 12:09:59;;;;;;;;;;;;;;;33.40;27.62;99625.22;4974926;28;19926;-73
2022/08/04 12:12:32;;;;;;;;;;;;;;;33.31;27.44;99631.38;4957799;28;20388;-74
2022/08/04 12:15:09;;;;;;;;;;;;;;;33.36;26.58;99629.13;4974852;28;19957;-73
2022/08/04 12:17:47;;;;;;;;;;;;;;;33.39;26.38;99626.19;4974679;28;19926;-72
2022/08/04 12:20:24;;;;;;;;;;;;;;;33.26;25.94;99628.38;4975241;28;19926;-73
2022/08/04 12:23:14;;;;;;;;;;;;;;;33.17;26.03;99613.34;4974745;28;19926;-73
2022/08/04 12:25:46;;;;;;;;;;;;;;;33.35;25.49;99622.19;4977207;28;19926;-73
2022/08/04 12:28:18;;;;;;;;;;;;;;;33.47;25.39;99615.72;4978636;28;19936;-73
2022/08/04 12:30:50;;;;;;;;;;;;;;;33.55;25.23;99621.13;4978478;28;19973;-74
2022/08/04 12:33:35;;;;;;;;;;;;;;;33.58;25.46;99612.88;4960688;28;19926;-74
2022/08/04 12:36:27;;;;;;;;;;;;;;;33.62;25.49;99615.06;4977887;28;20017;-74
2022/08/04 12:38:59;;;;;;;;;;;;;;;33.39;24.95;99615.59;4977912;28;19934;-73
2022/08/04 12:41:32;;;;;;;;;;;;;;;33.43;25.41;99622.25;4977858;28;19927;-73
2022/08/04 12:44:09;;;;;;;;;;;;;;;33.48;24.89;99604.97;4978494;28;20265;-74
2022/08/04 12:46:59;;;;;;;;;;;;;;;33.68;25.96;99603.91;4977821;28;20021;-74
2022/08/04 12:49:50;;;;;;;;;;;;;;;33.61;24.51;99602.00;4963351;28;19973;-73
2022/08/04 12:52:29;;;;;;;;;;;;;;;33.58;24.17;99597.84;4977731;28;19934;-73
2022/08/04 12:55:18;;;;;;;;;;;;;;;33.49;24.47;99587.28;4977490;28;19926;-73
2022/08/04 12:57:47;;;;;;;;;;;;;;;33.38;24.40;99590.13;4960573;28;19926;-73
2022/08/04 13:00:24;;;;;;;;;;;;;;;33.43;24.64;99596.63;4977520;28;20380;-73
2022/08/04 13:03:01;;;;;;;;;;;;;;;33.54;25.05;99588.53;4977490;28;20384;-73
2022/08/04 13:05:31;;;;;;;;;;;;;;;33.52;25.33;99589.63;4977451;28;19973;-74
2022/08/04 13:08:01;;;;;;;;;;;;;;;33.38;25.77;99590.13;4977625;28;19926;-73
2022/08/04 13:10:30;;;;;;;;;;;;;;;33.30;25.72;99582.94;4977556;28;20368;-73
2022/08/04 13:13:01;;;;;;;;;;;;;;;33.29;25.75;99573.31;4960352;28;20018;-73
2022/08/04 13:15:32;;;;;;;;;;;;;;;33.30;25.61;99574.16;4977773;28;19973;-72
2022/08/04 13:18:21;;;;;;;;;;;;;;;33.15;26.82;99565.03;4977203;28;19926;-74
2022/08/04 13:21:08;;;;;;;;;;;;;;;33.19;26.24;99564.56;4959971;28;19954;-73
2022/08/04 13:23:54;;;;;;;;;;;;;;;33.13;25.50;99559.88;4977104;28;19933;-73
2022/08/04 13:26:50;;;;;;;;;;;;;;;33.16;26.01;99559.59;4976993;28;19973;-73
2022/08/04 13:29:23;;;;;;;;;;;;;;;33.09;26.08;99559.34;4977021;28;19926;-74
2022/08/04 13:32:15;;;;;;;;;;;;;;;33.16;26.54;99561.41;4959692;28;19962;-74
2022/08/04 13:34:44;;;;;;;;;;;;;;;33.18;26.38;99554.16;4976953;28;20373;-74
2022/08/04 13:37:23;;;;;;;;;;;;;;;33.20;26.80;99552.19;4975352;28;19926;-74